sensor_id;sensor_type;location;lat;lon;timestamp;P1;durP1;ratioP1;P2;durP2;ratioP2
9188;SDS011;34313;50.780;6.084;2023-04-03T00:00:55;3.43;;;2.67;;
9188;SDS011;34313;50.780;6.084;2023-04-03T00:03:21;3.30;;;2.60;;
9188;SDS011;34313;50.780;6.084;2023-04-03T00:05:47;3.40;;;2.60;;
9188;SDS011;34313;50.780;6.084;2023-04-03T00:08:12;3.13;;;2.40;;
9188;SDS011;34313;50.780;6.084;2023-04-03T00:10:37;4.17;;;2.40;;
9188;SDS011;34313;50.780;6.084;2023-04-03T00:13:03;2.43;;;2.13;;
9188;SDS011;34313;50.780;6.084;2023-04-03T00:15:30;5.57;;;2.70;;
9188;SDS011;34313;50.780;6.084;2023-04-03T00:17:56;3.80;;;2.80;;
9188;SDS011;34313;50.780;6.084;2023-04-03T00:20:22;5.47;;;2.47;;
9188;SDS011;34313;50.780;6.084;2023-04-03T00:22:47;2.80;;;2.00;;
9188;SDS011;34313;50.780;6.084;2023-04-03T00:25:12;4.60;;;2.03;;
9188;SDS011;34313;50.780;6.084;2023-04-03T00:27:38;4.93;;;2.03;;
9188;SDS011;34313;50.780;6.084;2023-04-03T00:30:05;4.93;;;2.67;;
9188;SDS011;34313;50.780;6.084;2023-04-03T00:32:32;4.47;;;2.53;;
9188;SDS011;34313;50.780;6.084;2023-04-03T00:34:58;3.80;;;2.57;;
9188;SDS011;34313;50.780;6.084;2023-04-03T00:37:23;4.73;;;2.50;;
9188;SDS011;34313;50.780;6.084;2023-04-03T00:39:48;4.37;;;2.60;;
9188;SDS011;34313;50.780;6.084;2023-04-03T00:42:14;8.03;;;2.53;;
9188;SDS011;34313;50.780;6.084;2023-04-03T00:47:05;3.97;;;2.63;;
9188;SDS011;34313;50.780;6.084;2023-04-03T00:49:33;5.43;;;3.27;;
9188;SDS011;34313;50.780;6.084;2023-04-03T00:51:59;9.63;;;2.73;;
9188;SDS011;34313;50.780;6.084;2023-04-03T00:54:25;3.10;;;2.33;;
9188;SDS011;34313;50.780;6.084;2023-04-03T00:56:52;5.37;;;2.50;;
9188;SDS011;34313;50.780;6.084;2023-04-03T00:59:22;2.40;;;2.20;;
9188;SDS011;34313;50.780;6.084;2023-04-03T01:01:52;4.97;;;3.20;;
9188;SDS011;34313;50.780;6.084;2023-04-03T01:04:29;5.63;;;3.03;;
9188;SDS011;34313;50.780;6.084;2023-04-03T01:07:04;2.93;;;1.87;;
9188;SDS011;34313;50.780;6.084;2023-04-03T01:09:34;4.60;;;2.27;;
9188;SDS011;34313;50.780;6.084;2023-04-03T01:12:34;3.13;;;2.33;;
9188;SDS011;34313;50.780;6.084;2023-04-03T01:14:58;6.03;;;2.97;;
9188;SDS011;34313;50.780;6.084;2023-04-03T01:20:02;4.20;;;2.33;;
9188;SDS011;34313;50.780;6.084;2023-04-03T01:25:22;2.97;;;2.40;;
9188;SDS011;34313;50.780;6.084;2023-04-03T01:27:47;2.20;;;2.00;;
9188;SDS011;34313;50.780;6.084;2023-04-03T01:30:13;5.57;;;2.47;;
9188;SDS011;34313;50.780;6.084;2023-04-03T01:32:42;5.47;;;2.67;;
9188;SDS011;34313;50.780;6.084;2023-04-03T01:35:08;4.20;;;2.83;;
9188;SDS011;34313;50.780;6.084;2023-04-03T01:37:34;6.30;;;2.90;;
9188;SDS011;34313;50.780;6.084;2023-04-03T01:40:00;9.30;;;2.40;;
9188;SDS011;34313;50.780;6.084;2023-04-03T01:42:25;6.43;;;2.53;;
9188;SDS011;34313;50.780;6.084;2023-04-03T01:44:50;3.47;;;2.20;;
9188;SDS011;34313;50.780;6.084;2023-04-03T01:47:16;5.60;;;2.70;;
9188;SDS011;34313;50.780;6.084;2023-04-03T01:49:41;3.40;;;2.30;;
9188;SDS011;34313;50.780;6.084;2023-04-03T01:52:06;5.43;;;2.53;;
9188;SDS011;34313;50.780;6.084;2023-04-03T01:54:32;3.30;;;2.50;;
9188;SDS011;34313;50.780;6.084;2023-04-03T01:56:57;3.50;;;2.30;;
9188;SDS011;34313;50.780;6.084;2023-04-03T01:59:23;3.87;;;2.03;;
9188;SDS011;34313;50.780;6.084;2023-04-03T02:01:48;4.00;;;2.80;;
9188;SDS011;34313;50.780;6.084;2023-04-03T02:04:13;3.70;;;2.43;;
9188;SDS011;34313;50.780;6.084;2023-04-03T02:06:39;3.33;;;2.33;;
9188;SDS011;34313;50.780;6.084;2023-04-03T02:09:04;3.10;;;2.60;;
9188;SDS011;34313;50.780;6.084;2023-04-03T02:11:32;3.43;;;2.70;;
9188;SDS011;34313;50.780;6.084;2023-04-03T02:13:57;6.40;;;3.20;;
9188;SDS011;34313;50.780;6.084;2023-04-03T02:16:23;4.40;;;2.97;;
9188;SDS011;34313;50.780;6.084;2023-04-03T02:18:48;9.90;;;2.77;;
9188;SDS011;34313;50.780;6.084;2023-04-03T02:21:13;2.30;;;2.10;;
9188;SDS011;34313;50.780;6.084;2023-04-03T02:23:39;4.10;;;2.23;;
9188;SDS011;34313;50.780;6.084;2023-04-03T02:26:05;5.47;;;2.80;;
9188;SDS011;34313;50.780;6.084;2023-04-03T02:28:32;5.20;;;3.37;;
9188;SDS011;34313;50.780;6.084;2023-04-03T02:30:58;6.63;;;2.90;;
9188;SDS011;34313;50.780;6.084;2023-04-03T02:33:23;5.80;;;2.77;;
9188;SDS011;34313;50.780;6.084;2023-04-03T02:35:52;9.10;;;3.80;;
9188;SDS011;34313;50.780;6.084;2023-04-03T02:38:18;3.90;;;3.07;;
9188;SDS011;34313;50.780;6.084;2023-04-03T02:40:43;6.70;;;3.40;;
9188;SDS011;34313;50.780;6.084;2023-04-03T02:43:08;5.80;;;3.30;;
9188;SDS011;34313;50.780;6.084;2023-04-03T02:45:35;4.90;;;2.70;;
9188;SDS011;34313;50.780;6.084;2023-04-03T02:48:00;9.23;;;3.37;;
9188;SDS011;34313;50.780;6.084;2023-04-03T02:50:26;4.77;;;3.03;;
9188;SDS011;34313;50.780;6.084;2023-04-03T02:52:51;4.60;;;3.40;;
9188;SDS011;34313;50.780;6.084;2023-04-03T02:55:16;3.03;;;2.70;;
9188;SDS011;34313;50.780;6.084;2023-04-03T02:57:42;4.10;;;2.90;;
9188;SDS011;34313;50.780;6.084;2023-04-03T03:00:07;4.53;;;3.23;;
9188;SDS011;34313;50.780;6.084;2023-04-03T03:02:33;4.57;;;3.70;;
9188;SDS011;34313;50.780;6.084;2023-04-03T03:04:59;4.23;;;3.40;;
9188;SDS011;34313;50.780;6.084;2023-04-03T03:07:24;4.60;;;3.57;;
9188;SDS011;34313;50.780;6.084;2023-04-03T03:09:50;6.93;;;3.70;;
9188;SDS011;34313;50.780;6.084;2023-04-03T03:12:16;9.90;;;4.17;;
9188;SDS011;34313;50.780;6.084;2023-04-03T03:14:46;6.70;;;4.10;;
9188;SDS011;34313;50.780;6.084;2023-04-03T03:17:11;4.50;;;3.53;;
9188;SDS011;34313;50.780;6.084;2023-04-03T03:19:36;5.80;;;3.70;;
9188;SDS011;34313;50.780;6.084;2023-04-03T03:22:02;7.40;;;3.20;;
9188;SDS011;34313;50.780;6.084;2023-04-03T03:24:27;6.17;;;3.73;;
9188;SDS011;34313;50.780;6.084;2023-04-03T03:26:52;5.07;;;3.63;;
9188;SDS011;34313;50.780;6.084;2023-04-03T03:29:17;6.90;;;4.03;;
9188;SDS011;34313;50.780;6.084;2023-04-03T03:31:43;9.17;;;4.23;;
9188;SDS011;34313;50.780;6.084;2023-04-03T03:34:08;9.80;;;4.30;;
9188;SDS011;34313;50.780;6.084;2023-04-03T03:36:33;9.13;;;4.50;;
9188;SDS011;34313;50.780;6.084;2023-04-03T03:38:59;5.47;;;3.90;;
9188;SDS011;34313;50.780;6.084;2023-04-03T03:41:25;5.30;;;3.90;;
9188;SDS011;34313;50.780;6.084;2023-04-03T03:43:50;9.40;;;4.10;;
9188;SDS011;34313;50.780;6.084;2023-04-03T03:46:15;10.70;;;5.30;;
9188;SDS011;34313;50.780;6.084;2023-04-03T03:48:41;6.47;;;4.53;;
9188;SDS011;34313;50.780;6.084;2023-04-03T03:51:06;6.60;;;4.80;;
9188;SDS011;34313;50.780;6.084;2023-04-03T03:53:32;5.53;;;4.30;;
9188;SDS011;34313;50.780;6.084;2023-04-03T03:55:57;7.37;;;4.73;;
9188;SDS011;34313;50.780;6.084;2023-04-03T03:58:22;6.40;;;5.37;;
9188;SDS011;34313;50.780;6.084;2023-04-03T04:00:48;7.53;;;5.50;;
9188;SDS011;34313;50.780;6.084;2023-04-03T04:03:13;5.73;;;4.73;;
9188;SDS011;34313;50.780;6.084;2023-04-03T04:05:38;7.40;;;5.40;;
9188;SDS011;34313;50.780;6.084;2023-04-03T04:08:04;9.77;;;6.17;;
9188;SDS011;34313;50.780;6.084;2023-04-03T04:10:29;7.53;;;5.43;;
9188;SDS011;34313;50.780;6.084;2023-04-03T04:12:55;9.27;;;5.83;;
9188;SDS011;34313;50.780;6.084;2023-04-03T04:15:20;14.60;;;6.80;;
9188;SDS011;34313;50.780;6.084;2023-04-03T04:17:46;10.37;;;5.87;;
9188;SDS011;34313;50.780;6.084;2023-04-03T04:20:12;8.37;;;6.40;;
9188;SDS011;34313;50.780;6.084;2023-04-03T04:22:37;7.50;;;6.70;;
9188;SDS011;34313;50.780;6.084;2023-04-03T04:25:04;9.77;;;5.90;;
9188;SDS011;34313;50.780;6.084;2023-04-03T04:27:29;11.20;;;6.10;;
9188;SDS011;34313;50.780;6.084;2023-04-03T04:29:55;10.20;;;7.00;;
9188;SDS011;34313;50.780;6.084;2023-04-03T04:32:20;10.77;;;6.30;;
9188;SDS011;34313;50.780;6.084;2023-04-03T04:34:45;6.97;;;5.93;;
9188;SDS011;34313;50.780;6.084;2023-04-03T04:37:11;8.73;;;6.00;;
9188;SDS011;34313;50.780;6.084;2023-04-03T04:39:36;8.43;;;6.00;;
9188;SDS011;34313;50.780;6.084;2023-04-03T04:42:01;9.53;;;6.50;;
9188;SDS011;34313;50.780;6.084;2023-04-03T04:44:27;11.00;;;6.70;;
9188;SDS011;34313;50.780;6.084;2023-04-03T04:46:52;10.33;;;7.73;;
9188;SDS011;34313;50.780;6.084;2023-04-03T04:49:17;11.53;;;7.17;;
9188;SDS011;34313;50.780;6.084;2023-04-03T04:51:43;11.80;;;8.33;;
9188;SDS011;34313;50.780;6.084;2023-04-03T04:54:08;11.30;;;7.20;;
9188;SDS011;34313;50.780;6.084;2023-04-03T04:56:34;8.80;;;6.90;;
9188;SDS011;34313;50.780;6.084;2023-04-03T04:59:00;15.63;;;7.57;;
9188;SDS011;34313;50.780;6.084;2023-04-03T05:01:26;10.10;;;8.67;;
9188;SDS011;34313;50.780;6.084;2023-04-03T05:03:51;12.53;;;8.50;;
9188;SDS011;34313;50.780;6.084;2023-04-03T05:06:16;11.50;;;9.60;;
9188;SDS011;34313;50.780;6.084;2023-04-03T05:08:42;16.83;;;8.70;;
9188;SDS011;34313;50.780;6.084;2023-04-03T05:11:07;14.63;;;8.50;;
9188;SDS011;34313;50.780;6.084;2023-04-03T05:13:32;10.93;;;8.00;;
9188;SDS011;34313;50.780;6.084;2023-04-03T05:15:58;13.43;;;9.00;;
9188;SDS011;34313;50.780;6.084;2023-04-03T05:18:23;13.93;;;8.70;;
9188;SDS011;34313;50.780;6.084;2023-04-03T05:20:49;13.73;;;9.00;;
9188;SDS011;34313;50.780;6.084;2023-04-03T05:23:17;13.20;;;9.30;;
9188;SDS011;34313;50.780;6.084;2023-04-03T05:25:43;12.57;;;8.93;;
9188;SDS011;34313;50.780;6.084;2023-04-03T05:28:10;15.70;;;10.03;;
9188;SDS011;34313;50.780;6.084;2023-04-03T05:30:36;16.60;;;10.30;;
9188;SDS011;34313;50.780;6.084;2023-04-03T05:33:01;14.83;;;8.97;;
9188;SDS011;34313;50.780;6.084;2023-04-03T05:35:27;14.90;;;9.93;;
9188;SDS011;34313;50.780;6.084;2023-04-03T05:37:52;11.57;;;8.77;;
9188;SDS011;34313;50.780;6.084;2023-04-03T05:40:17;12.83;;;8.83;;
9188;SDS011;34313;50.780;6.084;2023-04-03T05:42:43;9.00;;;7.63;;
9188;SDS011;34313;50.780;6.084;2023-04-03T05:45:09;9.83;;;6.97;;
9188;SDS011;34313;50.780;6.084;2023-04-03T05:47:34;9.80;;;7.37;;
9188;SDS011;34313;50.780;6.084;2023-04-03T05:50:00;8.60;;;6.03;;
9188;SDS011;34313;50.780;6.084;2023-04-03T05:52:26;9.70;;;6.70;;
9188;SDS011;34313;50.780;6.084;2023-04-03T05:54:53;7.50;;;6.43;;
9188;SDS011;34313;50.780;6.084;2023-04-03T05:57:20;7.13;;;5.70;;
9188;SDS011;34313;50.780;6.084;2023-04-03T05:59:45;12.63;;;6.50;;
9188;SDS011;34313;50.780;6.084;2023-04-03T06:02:12;10.97;;;6.17;;
9188;SDS011;34313;50.780;6.084;2023-04-03T06:04:39;7.70;;;5.60;;
9188;SDS011;34313;50.780;6.084;2023-04-03T06:07:05;7.50;;;5.67;;
9188;SDS011;34313;50.780;6.084;2023-04-03T06:09:32;12.27;;;5.97;;
9188;SDS011;34313;50.780;6.084;2023-04-03T06:11:58;8.50;;;5.60;;
9188;SDS011;34313;50.780;6.084;2023-04-03T06:14:24;8.60;;;6.20;;
9188;SDS011;34313;50.780;6.084;2023-04-03T06:16:50;10.20;;;5.60;;
9188;SDS011;34313;50.780;6.084;2023-04-03T06:19:16;8.47;;;6.30;;
9188;SDS011;34313;50.780;6.084;2023-04-03T06:21:41;11.60;;;6.77;;
9188;SDS011;34313;50.780;6.084;2023-04-03T06:24:07;10.53;;;6.50;;
9188;SDS011;34313;50.780;6.084;2023-04-03T06:26:33;7.27;;;6.57;;
9188;SDS011;34313;50.780;6.084;2023-04-03T06:28:59;9.30;;;6.10;;
9188;SDS011;34313;50.780;6.084;2023-04-03T06:31:24;9.97;;;6.87;;
9188;SDS011;34313;50.780;6.084;2023-04-03T06:33:49;12.50;;;7.47;;
9188;SDS011;34313;50.780;6.084;2023-04-03T06:36:15;10.93;;;7.37;;
9188;SDS011;34313;50.780;6.084;2023-04-03T06:38:44;14.10;;;7.17;;
9188;SDS011;34313;50.780;6.084;2023-04-03T06:41:10;8.93;;;6.50;;
9188;SDS011;34313;50.780;6.084;2023-04-03T06:43:36;13.37;;;6.93;;
9188;SDS011;34313;50.780;6.084;2023-04-03T06:46:01;9.53;;;6.60;;
9188;SDS011;34313;50.780;6.084;2023-04-03T06:48:26;10.13;;;7.23;;
9188;SDS011;34313;50.780;6.084;2023-04-03T06:50:52;11.67;;;6.17;;
9188;SDS011;34313;50.780;6.084;2023-04-03T06:53:18;7.33;;;5.63;;
9188;SDS011;34313;50.780;6.084;2023-04-03T06:55:43;10.67;;;5.87;;
9188;SDS011;34313;50.780;6.084;2023-04-03T06:58:08;7.50;;;5.20;;
9188;SDS011;34313;50.780;6.084;2023-04-03T07:00:34;9.50;;;5.23;;
9188;SDS011;34313;50.780;6.084;2023-04-03T07:02:59;9.23;;;5.00;;
9188;SDS011;34313;50.780;6.084;2023-04-03T07:05:25;6.10;;;4.30;;
9188;SDS011;34313;50.780;6.084;2023-04-03T07:07:51;7.60;;;3.70;;
9188;SDS011;34313;50.780;6.084;2023-04-03T07:10:17;10.00;;;4.80;;
9188;SDS011;34313;50.780;6.084;2023-04-03T07:12:42;10.10;;;4.03;;
9188;SDS011;34313;50.780;6.084;2023-04-03T07:15:08;6.50;;;3.50;;
9188;SDS011;34313;50.780;6.084;2023-04-03T07:17:34;7.60;;;3.30;;
9188;SDS011;34313;50.780;6.084;2023-04-03T07:20:00;4.83;;;3.40;;
9188;SDS011;34313;50.780;6.084;2023-04-03T07:22:26;6.47;;;3.70;;
9188;SDS011;34313;50.780;6.084;2023-04-03T07:24:52;6.43;;;3.00;;
9188;SDS011;34313;50.780;6.084;2023-04-03T07:27:17;7.30;;;3.60;;
9188;SDS011;34313;50.780;6.084;2023-04-03T07:29:42;10.53;;;2.93;;
9188;SDS011;34313;50.780;6.084;2023-04-03T07:32:09;4.90;;;2.57;;
9188;SDS011;34313;50.780;6.084;2023-04-03T07:34:35;10.00;;;3.33;;
9188;SDS011;34313;50.780;6.084;2023-04-03T07:37:01;5.20;;;3.10;;
9188;SDS011;34313;50.780;6.084;2023-04-03T07:39:27;8.60;;;3.37;;
9188;SDS011;34313;50.780;6.084;2023-04-03T07:41:53;7.67;;;2.90;;
9188;SDS011;34313;50.780;6.084;2023-04-03T07:44:20;8.37;;;2.63;;
9188;SDS011;34313;50.780;6.084;2023-04-03T07:46:46;3.27;;;2.67;;
9188;SDS011;34313;50.780;6.084;2023-04-03T07:49:11;4.67;;;2.83;;
9188;SDS011;34313;50.780;6.084;2023-04-03T07:51:37;2.80;;;2.27;;
9188;SDS011;34313;50.780;6.084;2023-04-03T07:54:04;5.43;;;2.33;;
9188;SDS011;34313;50.780;6.084;2023-04-03T07:56:29;3.33;;;2.10;;
9188;SDS011;34313;50.780;6.084;2023-04-03T07:58:54;3.97;;;2.40;;
9188;SDS011;34313;50.780;6.084;2023-04-03T08:01:20;5.70;;;2.17;;
9188;SDS011;34313;50.780;6.084;2023-04-03T08:03:45;4.73;;;2.43;;
9188;SDS011;34313;50.780;6.084;2023-04-03T08:06:11;5.90;;;2.33;;
9188;SDS011;34313;50.780;6.084;2023-04-03T08:08:38;4.20;;;2.37;;
9188;SDS011;34313;50.780;6.084;2023-04-03T08:11:03;7.77;;;2.40;;
9188;SDS011;34313;50.780;6.084;2023-04-03T08:13:31;5.93;;;2.50;;
9188;SDS011;34313;50.780;6.084;2023-04-03T08:15:56;6.27;;;2.50;;
9188;SDS011;34313;50.780;6.084;2023-04-03T08:18:22;5.87;;;2.40;;
9188;SDS011;34313;50.780;6.084;2023-04-03T08:20:49;5.10;;;2.20;;
9188;SDS011;34313;50.780;6.084;2023-04-03T08:23:15;4.20;;;2.67;;
9188;SDS011;34313;50.780;6.084;2023-04-03T08:25:41;7.73;;;2.20;;
9188;SDS011;34313;50.780;6.084;2023-04-03T08:28:08;6.53;;;2.13;;
9188;SDS011;34313;50.780;6.084;2023-04-03T08:30:34;3.40;;;2.03;;
9188;SDS011;34313;50.780;6.084;2023-04-03T08:33:02;8.37;;;2.50;;
9188;SDS011;34313;50.780;6.084;2023-04-03T08:35:28;4.30;;;2.80;;
9188;SDS011;34313;50.780;6.084;2023-04-03T08:37:53;5.30;;;2.13;;
9188;SDS011;34313;50.780;6.084;2023-04-03T08:40:19;3.40;;;2.33;;
9188;SDS011;34313;50.780;6.084;2023-04-03T08:45:42;5.20;;;2.60;;
9188;SDS011;34313;50.780;6.084;2023-04-03T08:48:17;6.03;;;3.83;;
9188;SDS011;34313;50.780;6.084;2023-04-03T08:50:46;6.30;;;2.97;;
9188;SDS011;34313;50.780;6.084;2023-04-03T08:53:15;4.97;;;2.77;;
9188;SDS011;34313;50.780;6.084;2023-04-03T08:55:45;5.77;;;2.33;;
9188;SDS011;34313;50.780;6.084;2023-04-03T09:01:03;8.70;;;2.53;;
9188;SDS011;34313;50.780;6.084;2023-04-03T09:03:32;13.70;;;3.30;;
9188;SDS011;34313;50.780;6.084;2023-04-03T09:06:10;6.57;;;2.40;;
9188;SDS011;34313;50.780;6.084;2023-04-03T09:08:47;7.63;;;2.53;;
9188;SDS011;34313;50.780;6.084;2023-04-03T09:21:56;4.07;;;2.00;;
9188;SDS011;34313;50.780;6.084;2023-04-03T09:24:23;4.57;;;1.90;;
9188;SDS011;34313;50.780;6.084;2023-04-03T09:26:51;5.80;;;2.40;;
9188;SDS011;34313;50.780;6.084;2023-04-03T09:29:22;6.40;;;2.53;;
9188;SDS011;34313;50.780;6.084;2023-04-03T09:31:50;6.40;;;2.30;;
9188;SDS011;34313;50.780;6.084;2023-04-03T09:34:22;4.80;;;1.93;;
9188;SDS011;34313;50.780;6.084;2023-04-03T09:36:54;9.63;;;3.13;;
9188;SDS011;34313;50.780;6.084;2023-04-03T09:39:22;7.63;;;2.03;;
9188;SDS011;34313;50.780;6.084;2023-04-03T09:42:11;5.23;;;1.67;;
9188;SDS011;34313;50.780;6.084;2023-04-03T09:44:44;7.70;;;2.90;;
9188;SDS011;34313;50.780;6.084;2023-04-03T09:52:39;5.30;;;2.00;;
9188;SDS011;34313;50.780;6.084;2023-04-03T09:55:42;10.47;;;2.20;;
9188;SDS011;34313;50.780;6.084;2023-04-03T09:58:20;3.07;;;2.07;;
9188;SDS011;34313;50.780;6.084;2023-04-03T10:00:56;6.53;;;2.20;;
9188;SDS011;34313;50.780;6.084;2023-04-03T10:03:24;10.97;;;2.20;;
9188;SDS011;34313;50.780;6.084;2023-04-03T10:05:52;4.27;;;2.47;;
9188;SDS011;34313;50.780;6.084;2023-04-03T10:08:30;4.33;;;2.03;;
9188;SDS011;34313;50.780;6.084;2023-04-03T10:14:16;3.63;;;2.37;;
9188;SDS011;34313;50.780;6.084;2023-04-03T10:16:41;5.87;;;1.90;;
9188;SDS011;34313;50.780;6.084;2023-04-03T10:21:55;8.53;;;1.90;;
9188;SDS011;34313;50.780;6.084;2023-04-03T10:24:31;6.03;;;2.20;;
9188;SDS011;34313;50.780;6.084;2023-04-03T10:27:17;7.57;;;2.00;;
9188;SDS011;34313;50.780;6.084;2023-04-03T10:29:51;3.03;;;1.87;;
9188;SDS011;34313;50.780;6.084;2023-04-03T10:35:20;6.70;;;2.17;;
9188;SDS011;34313;50.780;6.084;2023-04-03T10:40:30;6.33;;;2.13;;
9188;SDS011;34313;50.780;6.084;2023-04-03T10:48:14;6.33;;;1.80;;
9188;SDS011;34313;50.780;6.084;2023-04-03T10:50:57;3.20;;;1.70;;
9188;SDS011;34313;50.780;6.084;2023-04-03T10:56:45;2.07;;;1.40;;
9188;SDS011;34313;50.780;6.084;2023-04-03T11:04:52;4.90;;;1.80;;
9188;SDS011;34313;50.780;6.084;2023-04-03T11:07:23;7.23;;;1.57;;
9188;SDS011;34313;50.780;6.084;2023-04-03T11:09:55;9.83;;;1.87;;
9188;SDS011;34313;50.780;6.084;2023-04-03T11:12:32;7.80;;;1.53;;
9188;SDS011;34313;50.780;6.084;2023-04-03T11:15:03;5.97;;;2.30;;
9188;SDS011;34313;50.780;6.084;2023-04-03T11:17:36;2.43;;;1.23;;
9188;SDS011;34313;50.780;6.084;2023-04-03T11:20:23;3.57;;;1.90;;
9188;SDS011;34313;50.780;6.084;2023-04-03T11:23:08;5.10;;;1.50;;
9188;SDS011;34313;50.780;6.084;2023-04-03T11:25:44;5.13;;;1.60;;
9188;SDS011;34313;50.780;6.084;2023-04-03T11:28:14;3.90;;;1.80;;
9188;SDS011;34313;50.780;6.084;2023-04-03T11:30:52;6.90;;;2.10;;
9188;SDS011;34313;50.780;6.084;2023-04-03T11:36:10;4.47;;;1.90;;
9188;SDS011;34313;50.780;6.084;2023-04-03T11:38:44;3.50;;;1.77;;
9188;SDS011;34313;50.780;6.084;2023-04-03T11:41:12;6.23;;;1.63;;
9188;SDS011;34313;50.780;6.084;2023-04-03T12:05:55;2.63;;;1.67;;
9188;SDS011;34313;50.780;6.084;2023-04-03T12:26:51;7.73;;;1.63;;
9188;SDS011;34313;50.780;6.084;2023-04-03T12:42:29;6.03;;;2.80;;
9188;SDS011;34313;50.780;6.084;2023-04-03T12:45:20;3.40;;;1.73;;
9188;SDS011;34313;50.780;6.084;2023-04-03T12:47:51;7.40;;;2.30;;
9188;SDS011;34313;50.780;6.084;2023-04-03T12:55:28;3.80;;;1.40;;
9188;SDS011;34313;50.780;6.084;2023-04-03T12:57:54;3.90;;;2.03;;
9188;SDS011;34313;50.780;6.084;2023-04-03T13:02:59;2.50;;;1.57;;
9188;SDS011;34313;50.780;6.084;2023-04-03T13:05:27;3.70;;;1.30;;
9188;SDS011;34313;50.780;6.084;2023-04-03T13:07:55;3.30;;;1.40;;
9188;SDS011;34313;50.780;6.084;2023-04-03T13:10:25;2.27;;;1.20;;
9188;SDS011;34313;50.780;6.084;2023-04-03T13:12:58;2.13;;;1.40;;
9188;SDS011;34313;50.780;6.084;2023-04-03T13:15:45;3.40;;;1.83;;
9188;SDS011;34313;50.780;6.084;2023-04-03T13:18:27;4.17;;;1.50;;
9188;SDS011;34313;50.780;6.084;2023-04-03T13:23:37;6.40;;;1.57;;
9188;SDS011;34313;50.780;6.084;2023-04-03T13:26:05;3.37;;;1.40;;
9188;SDS011;34313;50.780;6.084;2023-04-03T13:28:31;4.17;;;1.33;;
9188;SDS011;34313;50.780;6.084;2023-04-03T13:31:01;1.47;;;1.10;;
9188;SDS011;34313;50.780;6.084;2023-04-03T13:33:56;3.90;;;1.00;;
9188;SDS011;34313;50.780;6.084;2023-04-03T13:36:41;2.20;;;1.10;;
9188;SDS011;34313;50.780;6.084;2023-04-03T13:41:39;6.37;;;1.03;;
9188;SDS011;34313;50.780;6.084;2023-04-03T13:46:47;1.93;;;1.30;;
9188;SDS011;34313;50.780;6.084;2023-04-03T13:49:27;2.93;;;1.40;;
9188;SDS011;34313;50.780;6.084;2023-04-03T13:51:56;7.47;;;1.30;;
9188;SDS011;34313;50.780;6.084;2023-04-03T13:54:24;2.00;;;1.10;;
9188;SDS011;34313;50.780;6.084;2023-04-03T13:56:55;6.23;;;1.27;;
9188;SDS011;34313;50.780;6.084;2023-04-03T13:59:24;5.40;;;1.30;;
9188;SDS011;34313;50.780;6.084;2023-04-03T14:04:26;3.90;;;1.50;;
9188;SDS011;34313;50.780;6.084;2023-04-03T14:06:53;3.57;;;1.70;;
9188;SDS011;34313;50.780;6.084;2023-04-03T14:09:19;3.70;;;1.17;;
9188;SDS011;34313;50.780;6.084;2023-04-03T14:11:50;2.80;;;1.57;;
9188;SDS011;34313;50.780;6.084;2023-04-03T14:14:23;2.97;;;1.47;;
9188;SDS011;34313;50.780;6.084;2023-04-03T14:16:54;2.23;;;1.30;;
9188;SDS011;34313;50.780;6.084;2023-04-03T14:19:29;2.03;;;1.20;;
9188;SDS011;34313;50.780;6.084;2023-04-03T14:22:00;3.37;;;1.50;;
9188;SDS011;34313;50.780;6.084;2023-04-03T14:24:36;3.50;;;1.40;;
9188;SDS011;34313;50.780;6.084;2023-04-03T14:27:01;4.67;;;1.80;;
9188;SDS011;34313;50.780;6.084;2023-04-03T14:29:27;6.83;;;1.63;;
9188;SDS011;34313;50.780;6.084;2023-04-03T14:31:52;3.53;;;1.13;;
9188;SDS011;34313;50.780;6.084;2023-04-03T14:34:18;2.33;;;1.13;;
9188;SDS011;34313;50.780;6.084;2023-04-03T14:36:43;3.22;;;1.20;;
9188;SDS011;34313;50.780;6.084;2023-04-03T14:39:16;6.50;;;1.40;;
9188;SDS011;34313;50.780;6.084;2023-04-03T14:41:43;3.80;;;1.37;;
9188;SDS011;34313;50.780;6.084;2023-04-03T14:44:09;3.10;;;1.10;;
9188;SDS011;34313;50.780;6.084;2023-04-03T14:46:35;1.97;;;0.97;;
9188;SDS011;34313;50.780;6.084;2023-04-03T14:49:05;1.60;;;1.20;;
9188;SDS011;34313;50.780;6.084;2023-04-03T14:51:43;1.60;;;1.30;;
9188;SDS011;34313;50.780;6.084;2023-04-03T14:54:16;1.77;;;1.10;;
9188;SDS011;34313;50.780;6.084;2023-04-03T14:56:44;2.30;;;1.00;;
9188;SDS011;34313;50.780;6.084;2023-04-03T14:59:13;3.80;;;1.47;;
9188;SDS011;34313;50.780;6.084;2023-04-03T15:01:40;3.57;;;1.07;;
9188;SDS011;34313;50.780;6.084;2023-04-03T15:04:12;2.30;;;1.40;;
9188;SDS011;34313;50.780;6.084;2023-04-03T15:06:39;2.53;;;1.20;;
9188;SDS011;34313;50.780;6.084;2023-04-03T15:09:05;1.67;;;1.47;;
9188;SDS011;34313;50.780;6.084;2023-04-03T15:11:43;2.03;;;1.30;;
9188;SDS011;34313;50.780;6.084;2023-04-03T15:14:08;3.23;;;1.17;;
9188;SDS011;34313;50.780;6.084;2023-04-03T15:16:34;3.43;;;1.20;;
9188;SDS011;34313;50.780;6.084;2023-04-03T15:19:00;1.37;;;1.00;;
9188;SDS011;34313;50.780;6.084;2023-04-03T15:21:26;2.30;;;1.20;;
9188;SDS011;34313;50.780;6.084;2023-04-03T15:23:51;3.37;;;1.20;;
9188;SDS011;34313;50.780;6.084;2023-04-03T15:26:17;2.03;;;1.00;;
9188;SDS011;34313;50.780;6.084;2023-04-03T15:28:42;2.27;;;1.13;;
9188;SDS011;34313;50.780;6.084;2023-04-03T15:31:09;3.60;;;1.40;;
9188;SDS011;34313;50.780;6.084;2023-04-03T15:33:35;3.00;;;1.30;;
9188;SDS011;34313;50.780;6.084;2023-04-03T15:36:01;5.57;;;1.87;;
9188;SDS011;34313;50.780;6.084;2023-04-03T15:38:27;2.40;;;1.13;;
9188;SDS011;34313;50.780;6.084;2023-04-03T15:40:53;4.23;;;1.33;;
9188;SDS011;34313;50.780;6.084;2023-04-03T15:43:20;3.50;;;1.20;;
9188;SDS011;34313;50.780;6.084;2023-04-03T15:45:45;4.83;;;1.17;;
9188;SDS011;34313;50.780;6.084;2023-04-03T15:48:11;1.30;;;1.00;;
9188;SDS011;34313;50.780;6.084;2023-04-03T15:50:37;2.70;;;1.37;;
9188;SDS011;34313;50.780;6.084;2023-04-03T15:53:04;3.47;;;1.10;;
9188;SDS011;34313;50.780;6.084;2023-04-03T15:55:30;2.33;;;1.13;;
9188;SDS011;34313;50.780;6.084;2023-04-03T15:57:58;2.20;;;1.00;;
9188;SDS011;34313;50.780;6.084;2023-04-03T16:00:23;1.90;;;1.13;;
9188;SDS011;34313;50.780;6.084;2023-04-03T16:02:53;5.80;;;1.27;;
9188;SDS011;34313;50.780;6.084;2023-04-03T16:05:22;2.10;;;1.20;;
9188;SDS011;34313;50.780;6.084;2023-04-03T16:07:48;2.50;;;1.20;;
9188;SDS011;34313;50.780;6.084;2023-04-03T16:10:15;4.00;;;1.27;;
9188;SDS011;34313;50.780;6.084;2023-04-03T16:12:42;4.00;;;1.40;;
9188;SDS011;34313;50.780;6.084;2023-04-03T16:15:07;1.47;;;1.23;;
9188;SDS011;34313;50.780;6.084;2023-04-03T16:17:34;2.60;;;1.23;;
9188;SDS011;34313;50.780;6.084;2023-04-03T16:20:02;1.70;;;1.20;;
9188;SDS011;34313;50.780;6.084;2023-04-03T16:22:29;1.60;;;1.10;;
9188;SDS011;34313;50.780;6.084;2023-04-03T16:24:54;2.40;;;1.27;;
9188;SDS011;34313;50.780;6.084;2023-04-03T16:27:21;1.90;;;1.07;;
9188;SDS011;34313;50.780;6.084;2023-04-03T16:29:49;4.03;;;1.30;;
9188;SDS011;34313;50.780;6.084;2023-04-03T16:32:15;3.30;;;1.40;;
9188;SDS011;34313;50.780;6.084;2023-04-03T16:34:40;1.80;;;1.20;;
9188;SDS011;34313;50.780;6.084;2023-04-03T16:37:06;4.17;;;1.27;;
9188;SDS011;34313;50.780;6.084;2023-04-03T16:39:33;1.60;;;1.50;;
9188;SDS011;34313;50.780;6.084;2023-04-03T16:41:59;2.73;;;1.20;;
9188;SDS011;34313;50.780;6.084;2023-04-03T16:44:24;2.67;;;1.40;;
9188;SDS011;34313;50.780;6.084;2023-04-03T16:46:50;3.20;;;1.20;;
9188;SDS011;34313;50.780;6.084;2023-04-03T16:49:15;3.00;;;1.20;;
9188;SDS011;34313;50.780;6.084;2023-04-03T16:51:40;2.90;;;1.43;;
9188;SDS011;34313;50.780;6.084;2023-04-03T16:54:06;2.80;;;1.40;;
9188;SDS011;34313;50.780;6.084;2023-04-03T16:56:32;2.20;;;1.57;;
9188;SDS011;34313;50.780;6.084;2023-04-03T16:58:57;5.43;;;1.50;;
9188;SDS011;34313;50.780;6.084;2023-04-03T17:01:23;2.77;;;1.30;;
9188;SDS011;34313;50.780;6.084;2023-04-03T17:03:49;6.93;;;1.50;;
9188;SDS011;34313;50.780;6.084;2023-04-03T17:06:18;3.00;;;1.23;;
9188;SDS011;34313;50.780;6.084;2023-04-03T17:08:46;5.80;;;1.23;;
9188;SDS011;34313;50.780;6.084;2023-04-03T17:11:13;5.57;;;1.50;;
9188;SDS011;34313;50.780;6.084;2023-04-03T17:13:39;1.73;;;1.40;;